Time;durP1;ratioP1;P1;durP2;ratioP2;P2;SDS_P1;SDS_P2;PMS_P1;PMS_P2;Temp;Humidity;BMP_temperature;BMP_pressure;BME280_temperature;BME280_humidity;BME280_pressure;Samples;Min_cycle;Max_cycle;Signal;HPM_P1;HPM_P2
2021/04/09 00:01:39;;;;;;;7.78;3.30;;;8.40;99.90;;;;;;5052836;28;20052;-60
2021/04/09 00:04:05;;;;;;;10.80;3.20;;;8.40;99.90;;;;;;5053228;28;20029;-58
2021/04/09 00:06:31;;;;;;;5.13;2.90;;;8.30;99.90;;;;;;5052912;28;20036;-60
2021/04/09 00:08:57;;;;;;;8.43;3.10;;;8.30;99.90;;;;;;5051859;28;20488;-61
2021/04/09 00:11:22;;;;;;;7.22;2.60;;;8.30;99.90;;;;;;5053052;28;20025;-59
2021/04/09 00:13:48;;;;;;;6.65;2.75;;;8.30;99.90;;;;;;5051983;28;20029;-61
2021/04/09 00:16:14;;;;;;;5.55;3.03;;;8.20;99.90;;;;;;5051910;28;20039;-60
2021/04/09 00:18:39;;;;;;;8.55;3.13;;;8.20;99.90;;;;;;5052129;28;20032;-61
2021/04/09 00:21:05;;;;;;;8.65;2.92;;;8.20;99.90;;;;;;5052186;28;20479;-59
2021/04/09 00:23:31;;;;;;;5.28;2.47;;;8.20;99.90;;;;;;5050274;28;20111;-61
2021/04/09 00:25:57;;;;;;;8.45;2.75;;;8.20;99.90;;;;;;5052263;28;20033;-62
2021/04/09 00:28:22;;;;;;;6.50;2.90;;;8.10;99.90;;;;;;5051853;28;20479;-59
2021/04/09 00:30:48;;;;;;;10.20;2.70;;;8.10;99.90;;;;;;5052594;28;20087;-60
2021/04/09 00:33:14;;;;;;;6.63;2.38;;;8.00;99.90;;;;;;5052368;28;20056;-61
2021/04/09 00:35:40;;;;;;;8.45;2.45;;;8.00;99.90;;;;;;5051970;28;20107;-60
2021/04/09 00:38:06;;;;;;;6.80;2.60;;;7.90;99.90;;;;;;5052462;28;20116;-61
2021/04/09 00:40:31;;;;;;;5.90;2.63;;;7.90;99.90;;;;;;5050648;28;20033;-62
2021/04/09 00:42:57;;;;;;;5.45;2.55;;;8.00;99.90;;;;;;5052349;28;20100;-59
2021/04/09 00:45:23;;;;;;;9.10;2.70;;;8.10;99.90;;;;;;5052169;28;20068;-61
2021/04/09 00:47:49;;;;;;;12.73;3.15;;;8.00;99.90;;;;;;5052399;28;20059;-60
2021/04/09 00:50:15;;;;;;;10.73;2.65;;;8.00;99.90;;;;;;5052139;28;20036;-59
2021/04/09 00:52:42;;;;;;;7.75;2.50;;;8.00;99.90;;;;;;5051651;28;20025;-59
2021/04/09 00:55:10;;;;;;;8.52;2.75;;;8.00;99.90;;;;;;5051942;28;20033;-59
2021/04/09 00:57:37;;;;;;;8.98;2.83;;;8.00;99.90;;;;;;5051799;28;20036;-60
2021/04/09 01:00:09;;;;;;;7.03;2.58;;;7.90;99.90;;;;;;5050035;28;20025;-60
2021/04/09 01:02:35;;;;;;;14.60;2.88;;;7.90;99.90;;;;;;5051938;28;20135;-59
2021/04/09 01:05:01;;;;;;;7.38;2.58;;;7.90;99.90;;;;;;5052217;28;20041;-59
2021/04/09 01:07:27;;;;;;;6.07;2.58;;;7.90;99.90;;;;;;5052026;28;20033;-60
2021/04/09 01:09:54;;;;;;;8.02;2.60;;;7.80;99.90;;;;;;5051266;28;20029;-61
2021/04/09 01:12:20;;;;;;;7.68;2.50;;;7.80;99.90;;;;;;5051454;28;20040;-61
2021/04/09 01:14:46;;;;;;;8.77;3.05;;;7.80;99.90;;;;;;5051519;28;20039;-60
2021/04/09 01:17:31;;;;;;;6.15;2.38;;;7.70;99.90;;;;;;5051819;28;20028;-60
2021/04/09 01:20:15;;;;;;;7.88;2.60;;;7.70;99.90;;;;;;5049953;28;20029;-60
2021/04/09 01:23:03;;;;;;;9.13;2.80;;;7.70;99.90;;;;;;5048552;28;20025;-60
2021/04/09 01:26:01;;;;;;;10.07;2.95;;;7.70;99.90;;;;;;5038243;28;20469;-60
2021/04/09 01:29:05;;;;;;;7.63;2.80;;;7.60;99.90;;;;;;5051121;28;20447;-61
2021/04/09 01:32:10;;;;;;;6.45;2.65;;;7.60;99.90;;;;;;5040420;28;20029;-60
2021/04/09 01:34:41;;;;;;;4.45;2.58;;;7.50;99.90;;;;;;5004793;28;20052;-59
2021/04/09 01:37:22;;;;;;;8.18;2.88;;;7.50;99.90;;;;;;5009873;28;20038;-61
2021/04/09 01:39:53;;;;;;;5.63;2.60;;;7.50;99.90;;;;;;5034612;28;20492;-60
2021/04/09 01:42:21;;;;;;;7.25;2.78;;;7.60;99.90;;;;;;5050993;28;21738;-61
2021/04/09 01:44:50;;;;;;;7.55;2.40;;;7.70;99.90;;;;;;5046150;28;20486;-60
2021/04/09 01:47:17;;;;;;;9.73;2.35;;;7.70;99.90;;;;;;5050474;28;20063;-60
2021/04/09 01:49:44;;;;;;;7.07;2.47;;;7.70;99.90;;;;;;5051065;28;20100;-59
2021/04/09 01:52:11;;;;;;;5.50;2.47;;;7.60;99.90;;;;;;5051154;28;20420;-61
2021/04/09 01:54:39;;;;;;;5.00;2.63;;;7.60;99.90;;;;;;5050877;28;20037;-60
2021/04/09 01:57:08;;;;;;;8.45;2.78;;;7.60;99.90;;;;;;5049155;28;20061;-60
2021/04/09 01:59:37;;;;;;;6.88;3.03;;;7.60;99.90;;;;;;5048812;28;20033;-61
2021/04/09 02:02:03;;;;;;;8.50;2.60;;;7.60;99.90;;;;;;5051053;28;20029;-59
2021/04/09 02:04:31;;;;;;;20.55;3.17;;;7.60;99.90;;;;;;5050621;28;20075;-59
2021/04/09 02:06:58;;;;;;;9.32;2.38;;;7.50;99.90;;;;;;5048981;28;20738;-60
2021/04/09 02:09:24;;;;;;;7.93;2.30;;;7.40;99.90;;;;;;5046967;28;20041;-59
2021/04/09 02:11:51;;;;;;;10.35;2.75;;;7.50;99.90;;;;;;5045059;28;20040;-59
2021/04/09 02:14:18;;;;;;;7.60;2.40;;;7.40;99.90;;;;;;5046310;28;20031;-60
2021/04/09 02:16:45;;;;;;;7.22;2.40;;;7.40;99.90;;;;;;5043140;28;20029;-59
2021/04/09 02:19:10;;;;;;;4.85;2.17;;;7.40;99.90;;;;;;5046341;28;20040;-60
2021/04/09 02:21:37;;;;;;;8.15;2.45;;;7.40;99.90;;;;;;5047312;28;20037;-61
2021/04/09 02:24:04;;;;;;;8.15;2.60;;;7.40;99.90;;;;;;5048240;28;20037;-59
2021/04/09 02:26:30;;;;;;;5.60;2.22;;;7.40;99.90;;;;;;5037407;28;20451;-60
2021/04/09 02:28:58;;;;;;;8.98;3.13;;;7.30;99.90;;;;;;5044412;28;20075;-61
2021/04/09 02:31:24;;;;;;;6.75;2.20;;;7.30;99.90;;;;;;5043410;28;20434;-59
2021/04/09 02:33:50;;;;;;;5.18;2.10;;;7.30;99.90;;;;;;5052416;28;20021;-59
2021/04/09 02:36:22;;;;;;;3.30;1.77;;;7.40;99.90;;;;;;5054860;28;20347;-61
2021/04/09 02:38:51;;;;;;;4.72;1.90;;;7.30;99.90;;;;;;5054362;28;20103;-59
2021/04/09 02:41:18;;;;;;;8.05;2.17;;;7.30;99.90;;;;;;5054380;28;20029;-60
2021/04/09 02:43:44;;;;;;;5.20;2.00;;;7.10;99.90;;;;;;5054082;28;20509;-59
2021/04/09 02:46:15;;;;;;;8.27;2.20;;;7.20;99.90;;;;;;5054466;28;20043;-60
2021/04/09 02:48:51;;;;;;;7.50;2.20;;;7.30;99.90;;;;;;5041659;28;20108;-60
2021/04/09 02:51:19;;;;;;;5.65;2.10;;;7.20;99.90;;;;;;5052257;28;20447;-60
2021/04/09 02:53:46;;;;;;;5.95;2.05;;;7.20;99.90;;;;;;5053905;28;20474;-59
2021/04/09 02:56:12;;;;;;;8.80;2.00;;;7.30;99.90;;;;;;5054613;28;20104;-61
2021/04/09 02:58:39;;;;;;;6.22;1.95;;;7.20;99.90;;;;;;5054153;28;20024;-59
2021/04/09 03:01:05;;;;;;;6.90;2.15;;;7.20;99.90;;;;;;5054263;28;20083;-60
2021/04/09 03:03:31;;;;;;;7.03;2.40;;;7.20;99.90;;;;;;5053848;28;20032;-60
2021/04/09 03:05:58;;;;;;;3.92;1.95;;;7.20;99.90;;;;;;5053665;28;20048;-59
2021/04/09 03:08:24;;;;;;;9.35;2.30;;;7.20;99.90;;;;;;5054930;28;20054;-60
2021/04/09 03:10:50;;;;;;;5.18;1.85;;;7.20;99.90;;;;;;5053332;28;20475;-60
2021/04/09 03:13:16;;;;;;;19.90;3.13;;;7.10;99.90;;;;;;5053739;28;20037;-60
2021/04/09 03:16:03;;;;;;;5.55;2.00;;;7.10;99.90;;;;;;5054039;28;20039;-60
2021/04/09 03:18:34;;;;;;;9.32;2.65;;;7.00;99.90;;;;;;5052526;28;20060;-59
2021/04/09 03:21:00;;;;;;;5.75;1.90;;;7.00;99.90;;;;;;5053810;28;20039;-60
2021/04/09 03:23:25;;;;;;;8.23;2.35;;;7.00;99.90;;;;;;5039272;28;20041;-60
2021/04/09 03:25:51;;;;;;;5.55;2.15;;;7.00;99.90;;;;;;5052705;28;20091;-60
2021/04/09 03:28:17;;;;;;;6.25;2.03;;;7.10;99.90;;;;;;5053403;28;20033;-61
2021/04/09 03:30:49;;;;;;;5.10;1.92;;;7.00;99.90;;;;;;5053539;28;20033;-60
2021/04/09 03:33:22;;;;;;;7.85;2.22;;;6.90;99.90;;;;;;5053457;28;20086;-61
2021/04/09 03:35:48;;;;;;;7.60;2.38;;;6.80;99.90;;;;;;5053860;28;20045;-61
2021/04/09 03:38:15;;;;;;;6.40;2.53;;;6.70;99.90;;;;;;5053505;28;20475;-61
2021/04/09 03:40:41;;;;;;;8.45;2.40;;;6.70;99.90;;;;;;5053193;28;20040;-61
2021/04/09 03:43:12;;;;;;;9.45;2.72;;;6.70;99.90;;;;;;5053082;28;20478;-59
2021/04/09 03:45:38;;;;;;;5.38;2.47;;;6.70;99.90;;;;;;5053025;28;20439;-61
2021/04/09 03:48:04;;;;;;;11.88;2.95;;;6.80;99.90;;;;;;5053042;28;20108;-60
2021/04/09 03:50:29;;;;;;;13.25;2.80;;;6.70;99.90;;;;;;5052873;28;20356;-59
2021/04/09 03:52:55;;;;;;;6.78;2.60;;;6.60;99.90;;;;;;5053336;28;20048;-59
2021/04/09 03:55:21;;;;;;;6.15;2.42;;;6.60;99.90;;;;;;5058331;28;20489;-59
2021/04/09 03:57:46;;;;;;;4.88;2.22;;;6.60;99.90;;;;;;5052770;28;20424;-60
2021/04/09 04:00:12;;;;;;;10.02;2.88;;;6.50;99.90;;;;;;5051966;28;20029;-59
2021/04/09 04:02:38;;;;;;;7.82;3.10;;;6.50;99.90;;;;;;5052688;28;20060;-60
2021/04/09 04:05:05;;;;;;;8.95;2.83;;;6.50;99.90;;;;;;5052400;28;20060;-59
2021/04/09 04:07:31;;;;;;;10.40;2.72;;;6.60;99.90;;;;;;5052127;28;20029;-59
2021/04/09 04:09:56;;;;;;;7.47;2.65;;;6.60;99.90;;;;;;5052648;28;20040;-60
2021/04/09 04:12:22;;;;;;;8.13;3.00;;;6.60;99.90;;;;;;5052252;28;20033;-60
2021/04/09 04:14:48;;;;;;;9.40;3.08;;;6.50;99.90;;;;;;5052788;28;20367;-62
2021/04/09 04:17:13;;;;;;;9.13;2.55;;;6.50;99.90;;;;;;5052887;28;20108;-61
2021/04/09 04:19:39;;;;;;;5.90;2.50;;;6.60;99.90;;;;;;5051154;28;20029;-60
2021/04/09 04:22:05;;;;;;;7.88;2.53;;;6.50;99.90;;;;;;5041660;28;20029;-61
2021/04/09 04:24:30;;;;;;;8.27;2.70;;;6.50;99.90;;;;;;5045341;28;20051;-60
2021/04/09 04:26:56;;;;;;;9.60;2.53;;;6.50;99.90;;;;;;5051918;28;20418;-60
2021/04/09 04:29:22;;;;;;;13.32;6.82;;;6.40;99.90;;;;;;5052614;28;20065;-60
2021/04/09 04:31:47;;;;;;;9.20;2.80;;;6.40;99.90;;;;;;5052800;28;20033;-60
2021/04/09 04:34:13;;;;;;;8.60;2.72;;;6.40;99.90;;;;;;5052436;28;20539;-60
2021/04/09 04:36:39;;;;;;;7.28;2.70;;;6.30;99.90;;;;;;5051914;28;20036;-60
2021/04/09 04:39:05;;;;;;;8.98;2.67;;;6.30;99.90;;;;;;5052105;28;20029;-60
2021/04/09 04:41:31;;;;;;;7.95;3.00;;;6.20;99.90;;;;;;5052448;28;20033;-60
2021/04/09 04:43:57;;;;;;;10.85;3.00;;;6.10;99.90;;;;;;5051433;28;20033;-59
2021/04/09 04:46:24;;;;;;;5.28;2.80;;;6.00;99.90;;;;;;5052262;28;20043;-59
2021/04/09 04:48:50;;;;;;;11.10;3.17;;;6.10;99.90;;;;;;5052437;28;20025;-61
2021/04/09 04:51:17;;;;;;;8.63;2.83;;;6.10;99.90;;;;;;5051857;28;20037;-59
2021/04/09 04:53:43;;;;;;;7.75;3.00;;;6.10;99.90;;;;;;5051574;28;20455;-60
2021/04/09 04:56:08;;;;;;;8.98;3.35;;;6.10;99.90;;;;;;5051192;28;20025;-59
2021/04/09 04:58:34;;;;;;;8.57;3.35;;;6.20;99.90;;;;;;5052191;28;20060;-60
2021/04/09 05:01:00;;;;;;;12.38;3.28;;;6.10;99.90;;;;;;5051530;28;20040;-59
2021/04/09 05:03:25;;;;;;;10.73;3.40;;;6.00;99.90;;;;;;5051750;28;20087;-60
2021/04/09 05:05:51;;;;;;;11.18;3.20;;;6.00;99.90;;;;;;5051404;28;20045;-60
2021/04/09 05:08:17;;;;;;;9.90;3.60;;;5.90;99.90;;;;;;5051370;28;20120;-59
2021/04/09 05:10:42;;;;;;;18.45;3.72;;;5.90;99.90;;;;;;5050729;28;20025;-60
2021/04/09 05:13:08;;;;;;;13.40;3.75;;;6.00;99.90;;;;;;5050531;28;20477;-59
2021/04/09 05:15:34;;;;;;;8.13;3.40;;;6.10;99.90;;;;;;5051353;28;20029;-61
2021/04/09 05:17:59;;;;;;;7.85;3.70;;;6.10;99.90;;;;;;5051432;28;20044;-59
2021/04/09 05:20:25;;;;;;;17.40;3.78;;;6.00;99.90;;;;;;5047775;28;20029;-60
2021/04/09 05:22:51;;;;;;;8.52;3.25;;;6.00;99.90;;;;;;5050841;28;20033;-61
2021/04/09 05:25:17;;;;;;;13.38;3.55;;;6.00;99.90;;;;;;5049787;28;20045;-61
2021/04/09 05:27:42;;;;;;;21.38;5.40;;;6.00;99.90;;;;;;5050389;28;20067;-60
2021/04/09 05:30:09;;;;;;;12.43;4.22;;;6.00;99.90;;;;;;5051578;28;20390;-60
2021/04/09 05:32:34;;;;;;;9.93;3.60;;;6.00;99.90;;;;;;5050994;28;20043;-61
2021/04/09 05:35:00;;;;;;;14.75;3.60;;;5.90;99.90;;;;;;5050976;28;20463;-58
2021/04/09 05:37:26;;;;;;;12.05;3.58;;;5.90;99.90;;;;;;5050624;28;20037;-59
2021/04/09 05:39:51;;;;;;;9.18;4.68;;;5.90;99.90;;;;;;5051072;28;20029;-60
2021/04/09 05:42:17;;;;;;;10.00;3.55;;;5.90;99.90;;;;;;5050720;28;20451;-61
2021/04/09 05:44:43;;;;;;;11.38;3.65;;;5.90;99.90;;;;;;5051805;28;20035;-60
2021/04/09 05:47:10;;;;;;;11.90;3.30;;;5.90;99.90;;;;;;5051187;28;20028;-60
2021/04/09 05:49:36;;;;;;;10.70;3.33;;;5.90;99.90;;;;;;5050112;28;20906;-59
2021/04/09 05:52:04;;;;;;;8.55;3.00;;;5.90;99.90;;;;;;5050837;28;20035;-59
2021/04/09 05:54:29;;;;;;;17.13;4.85;;;5.90;99.90;;;;;;5049637;28;20029;-60
2021/04/09 05:56:55;;;;;;;12.30;3.03;;;5.90;99.90;;;;;;5051213;28;20049;-61
2021/04/09 05:59:21;;;;;;;15.57;3.72;;;6.00;99.90;;;;;;5049235;28;20028;-60
2021/04/09 06:01:46;;;;;;;14.23;3.92;;;6.00;99.90;;;;;;5050618;28;20032;-59
2021/04/09 06:04:12;;;;;;;10.52;3.33;;;6.00;99.90;;;;;;5050313;28;20039;-61
2021/04/09 06:06:38;;;;;;;13.60;3.47;;;6.10;99.90;;;;;;5050498;28;20387;-60
2021/04/09 06:09:04;;;;;;;13.00;3.38;;;6.20;99.90;;;;;;5049592;28;20033;-59
2021/04/09 06:11:31;;;;;;;10.07;3.40;;;6.20;99.90;;;;;;5049029;28;20386;-59
2021/04/09 06:13:57;;;;;;;9.80;3.10;;;6.20;99.90;;;;;;5041946;28;20082;-59
2021/04/09 06:16:23;;;;;;;11.27;3.30;;;6.20;99.90;;;;;;5051356;28;20033;-60
2021/04/09 06:18:49;;;;;;;7.75;3.40;;;6.20;99.90;;;;;;5050418;28;20029;-60
2021/04/09 06:21:15;;;;;;;10.68;3.97;;;6.20;99.90;;;;;;5048135;28;20070;-59
2021/04/09 06:23:40;;;;;;;8.50;3.00;;;6.30;99.90;;;;;;5049686;28;20052;-58
2021/04/09 06:26:06;;;;;;;21.13;4.10;;;6.40;99.90;;;;;;5049677;28;20434;-59
2021/04/09 06:28:33;;;;;;;11.70;3.47;;;6.40;99.90;;;;;;5050403;28;20428;-60
2021/04/09 06:30:59;;;;;;;18.08;4.03;;;6.50;99.90;;;;;;5050687;28;20086;-60
2021/04/09 06:33:24;;;;;;;10.70;3.03;;;6.50;99.90;;;;;;5050234;28;20025;-60
2021/04/09 06:35:50;;;;;;;13.13;3.40;;;6.50;99.90;;;;;;5050201;28;20398;-60
2021/04/09 06:38:16;;;;;;;14.65;3.90;;;6.50;99.90;;;;;;5050468;28;20342;-60
2021/04/09 06:40:41;;;;;;;8.30;3.53;;;6.60;99.90;;;;;;5050955;28;20025;-59
2021/04/09 06:43:08;;;;;;;17.67;4.47;;;6.60;99.90;;;;;;5049204;28;20108;-61
2021/04/09 06:45:33;;;;;;;12.95;4.05;;;6.60;99.90;;;;;;5046655;28;20021;-59
2021/04/09 06:47:59;;;;;;;16.92;4.82;;;6.70;99.90;;;;;;5044741;28;20078;-60
2021/04/09 06:50:25;;;;;;;24.67;4.78;;;6.80;99.90;;;;;;5048310;28;20095;-60
2021/04/09 06:52:54;;;;;;;25.48;4.97;;;6.80;99.90;;;;;;5052781;28;20072;-60
2021/04/09 06:55:22;;;;;;;14.95;4.70;;;6.90;99.90;;;;;;5049724;28;20082;-61
2021/04/09 06:57:49;;;;;;;25.02;4.65;;;7.00;99.90;;;;;;5049029;28;20029;-61
2021/04/09 07:00:16;;;;;;;13.98;3.30;;;7.10;99.90;;;;;;5049591;28;20036;-61
2021/04/09 07:02:44;;;;;;;17.85;4.93;;;7.10;99.90;;;;;;5050039;28;20455;-60
2021/04/09 07:05:11;;;;;;;9.48;3.80;;;7.20;99.90;;;;;;5050118;28;20024;-61
2021/04/09 07:07:37;;;;;;;19.40;4.07;;;7.30;99.90;;;;;;5048359;28;20041;-62
2021/04/09 07:10:03;;;;;;;14.05;4.25;;;7.40;99.90;;;;;;5048877;28;20051;-59
2021/04/09 07:12:31;;;;;;;10.40;3.63;;;7.50;99.90;;;;;;5046872;28;20467;-61
2021/04/09 07:15:07;;;;;;;18.83;4.32;;;7.50;99.90;;;;;;5048922;28;20033;-61
2021/04/09 07:17:43;;;;;;;13.63;3.67;;;7.60;99.90;;;;;;5049157;28;20078;-59
2021/04/09 07:20:19;;;;;;;22.20;3.95;;;7.80;99.90;;;;;;5047285;28;20434;-60
2021/04/09 07:22:49;;;;;;;15.75;3.83;;;7.80;99.90;;;;;;5048697;28;20135;-59
2021/04/09 07:25:20;;;;;;;8.80;3.35;;;8.10;99.90;;;;;;5052652;28;20102;-59
2021/04/09 07:27:48;;;;;;;12.45;3.35;;;8.40;99.90;;;;;;5053781;28;20033;-59
2021/04/09 07:30:25;;;;;;;36.85;4.88;;;8.50;99.90;;;;;;5053821;28;20061;-61
2021/04/09 07:32:51;;;;;;;10.40;3.35;;;8.50;99.90;;;;;;5053378;28;20021;-60
2021/04/09 07:35:17;;;;;;;18.27;3.80;;;8.70;99.90;;;;;;5053874;28;20040;-59
2021/04/09 07:37:56;;;;;;;16.02;3.70;;;8.90;99.90;;;;;;5053625;28;20068;-60
2021/04/09 07:40:29;;;;;;;34.38;4.93;;;9.00;99.90;;;;;;5044932;28;20545;-59
2021/04/09 07:42:56;;;;;;;12.93;3.50;;;9.30;99.90;;;;;;5052402;28;20033;-60
2021/04/09 07:45:22;;;;;;;25.95;4.43;;;9.60;99.90;;;;;;5051269;28;20048;-59
2021/04/09 07:48:04;;;;;;;21.92;3.88;;;9.70;99.90;;;;;;5052573;28;20103;-60
2021/04/09 07:50:36;;;;;;;15.45;3.72;;;9.90;99.90;;;;;;5052393;28;20040;-60
2021/04/09 07:53:01;;;;;;;9.02;3.10;;;10.10;99.90;;;;;;5051635;28;20029;-60
2021/04/09 07:55:30;;;;;;;12.43;3.60;;;10.10;99.90;;;;;;5051033;28;20024;-60
2021/04/09 07:58:15;;;;;;;19.65;3.58;;;10.30;99.90;;;;;;5048624;28;20048;-59
2021/04/09 08:00:41;;;;;;;21.30;3.40;;;10.50;99.90;;;;;;5051435;28;20033;-59
2021/04/09 08:03:07;;;;;;;14.93;3.22;;;10.80;99.90;;;;;;5049369;28;20083;-60
2021/04/09 08:05:32;;;;;;;21.02;3.47;;;11.10;99.90;;;;;;5050646;28;20028;-60
2021/04/09 08:07:58;;;;;;;35.42;4.00;;;11.00;99.90;;;;;;5052478;28;20048;-59
2021/04/09 08:10:33;;;;;;;15.82;2.85;;;10.90;99.90;;;;;;5052070;28;20103;-60
2021/04/09 08:13:00;;;;;;;;;;;10.80;99.90;;;;;;5048027;28;20429;-59
2021/04/09 08:15:32;;;;;;;15.50;3.13;;;11.10;99.90;;;;;;5051263;28;19916;-61
2021/04/09 08:18:09;;;;;;;13.63;3.10;;;11.20;99.90;;;;;;5052769;28;20068;-60
2021/04/09 08:20:40;;;;;;;27.13;4.47;;;11.50;99.90;;;;;;5046987;28;20021;-60
2021/04/09 08:23:08;;;;;;;25.90;4.00;;;11.50;99.90;;;;;;5051626;28;20029;-61
2021/04/09 08:25:35;;;;;;;9.32;2.40;;;11.60;99.90;;;;;;5052600;28;20071;-60
2021/04/09 08:28:04;;;;;;;9.23;3.15;;;11.70;99.90;;;;;;5052348;28;20037;-60
2021/04/09 08:30:31;;;;;;;14.00;3.53;;;11.80;99.90;;;;;;5052058;28;20453;-61
2021/04/09 08:32:58;;;;;;;15.63;3.40;;;12.10;99.90;;;;;;5052326;28;20043;-60
2021/04/09 08:35:25;;;;;;;13.50;2.95;;;12.10;99.90;;;;;;5042144;28;20029;-60
2021/04/09 08:37:51;;;;;;;15.45;3.00;;;12.30;99.90;;;;;;5052537;28;20039;-60
2021/04/09 08:40:18;;;;;;;12.82;2.97;;;12.40;99.90;;;;;;5052629;28;20112;-61
2021/04/09 08:42:44;;;;;;;16.40;2.80;;;12.60;99.90;;;;;;5052140;28;20475;-60
2021/04/09 08:45:12;;;;;;;17.10;2.40;;;12.80;99.90;;;;;;5052628;28;20127;-60
2021/04/09 08:47:41;;;;;;;22.35;3.13;;;12.70;99.90;;;;;;5052420;28;20087;-60
2021/04/09 08:50:10;;;;;;;13.05;1.90;;;12.60;99.90;;;;;;5051004;28;20037;-61
2021/04/09 08:52:47;;;;;;;19.50;2.25;;;12.60;99.90;;;;;;5052186;28;20055;-61
2021/04/09 08:55:15;;;;;;;12.85;2.25;;;12.30;99.90;;;;;;5051827;28;20039;-60
2021/04/09 08:57:44;;;;;;;16.15;2.50;;;11.90;99.90;;;;;;5051744;28;20108;-60
2021/04/09 09:00:10;;;;;;;9.98;2.25;;;11.80;99.90;;;;;;5052281;28;20057;-60
2021/04/09 09:02:53;;;;;;;8.77;1.73;;;12.00;99.90;;;;;;5038249;28;20052;-60
2021/04/09 09:05:30;;;;;;;13.35;1.80;;;12.40;99.90;;;;;;5049974;28;20475;-60
2021/04/09 09:08:01;;;;;;;10.43;2.00;;;12.30;99.90;;;;;;5050724;28;20025;-60
2021/04/09 09:10:29;;;;;;;22.48;2.60;;;12.40;99.90;;;;;;5053169;28;20486;-60
2021/04/09 09:15:42;;;;;;;10.23;2.00;;;13.00;99.90;;;;;;5051590;28;20037;-60
2021/04/09 09:18:27;;;;;;;17.52;2.60;;;13.00;99.90;;;;;;5051236;28;20036;-60
2021/04/09 09:21:24;;;;;;;8.57;1.50;;;12.90;99.90;;;;;;5051703;28;20032;-59
2021/04/09 09:23:54;;;;;;;11.65;2.20;;;13.00;99.90;;;;;;5049874;28;20497;-60
2021/04/09 09:26:29;;;;;;;12.15;1.90;;;12.70;99.90;;;;;;5050806;28;20041;-59
2021/04/09 09:29:08;;;;;;;14.82;2.10;;;12.50;99.90;;;;;;5038938;28;20102;-60
2021/04/09 09:31:35;;;;;;;21.90;3.08;;;12.80;99.90;;;;;;5051082;28;20025;-60
2021/04/09 09:34:21;;;;;;;11.23;2.30;;;12.70;99.90;;;;;;5050510;28;20048;-59
2021/04/09 09:37:07;;;;;;;18.80;2.22;;;12.50;99.90;;;;;;5043853;28;20052;-59
2021/04/09 09:39:42;;;;;;;16.20;2.40;;;12.40;99.90;;;;;;5042570;28;20025;-60
2021/04/09 09:42:11;;;;;;;12.48;1.95;;;12.40;99.90;;;;;;5048908;28;20491;-59
2021/04/09 09:44:39;;;;;;;12.10;2.58;;;12.60;99.90;;;;;;5051074;28;20052;-60
2021/04/09 09:47:14;;;;;;;14.23;2.65;;;12.60;99.90;;;;;;5051080;28;20052;-60
2021/04/09 09:49:40;;;;;;;3.97;1.52;;;12.50;99.90;;;;;;5041189;28;20044;-60
2021/04/09 09:52:22;;;;;;;12.77;1.95;;;12.50;99.90;;;;;;5050137;28;20032;-60
2021/04/09 09:55:12;;;;;;;18.17;2.47;;;13.00;99.90;;;;;;5051050;28;20033;-60
2021/04/09 09:57:44;;;;;;;10.65;1.85;;;13.10;99.90;;;;;;5050580;28;20604;-60
2021/04/09 10:00:11;;;;;;;9.13;1.88;;;13.00;99.90;;;;;;5050197;28;20032;-60
2021/04/09 10:02:37;;;;;;;7.90;1.60;;;12.90;99.90;;;;;;5056359;28;20039;-59
2021/04/09 10:05:04;;;;;;;11.98;2.17;;;12.90;99.90;;;;;;5043695;28;20104;-60
2021/04/09 10:07:30;;;;;;;9.13;1.40;;;12.90;99.90;;;;;;5036594;28;20025;-60
2021/04/09 10:09:56;;;;;;;16.10;2.13;;;13.00;99.90;;;;;;5037464;28;20045;-60
2021/04/09 10:12:22;;;;;;;8.68;1.90;;;12.90;99.90;;;;;;5046196;28;20025;-60
2021/04/09 10:14:49;;;;;;;22.88;2.80;;;12.70;99.90;;;;;;5050933;28;20082;-59
2021/04/09 10:17:15;;;;;;;11.63;2.20;;;12.60;99.90;;;;;;5050598;28;20031;-59
2021/04/09 10:19:58;;;;;;;12.98;2.47;;;12.40;99.90;;;;;;5048943;28;20033;-59
2021/04/09 10:22:24;;;;;;;12.93;2.63;;;12.40;99.90;;;;;;5047287;28;20107;-59
2021/04/09 10:24:49;;;;;;;8.35;1.63;;;12.30;99.90;;;;;;5052130;28;20538;-59
2021/04/09 10:27:15;;;;;;;17.40;2.85;;;12.20;99.90;;;;;;5050174;28;20032;-59
2021/04/09 10:29:41;;;;;;;10.93;2.00;;;12.30;99.90;;;;;;5049032;28;20851;-59
2021/04/09 10:32:21;;;;;;;28.90;2.97;;;12.10;99.90;;;;;;5050342;28;20086;-60
2021/04/09 10:34:51;;;;;;;14.25;3.00;;;12.10;99.90;;;;;;5049978;28;20044;-60
2021/04/09 10:37:25;;;;;;;11.73;1.98;;;12.10;99.90;;;;;;5050149;28;20029;-60
2021/04/09 10:39:52;;;;;;;10.57;2.42;;;12.10;99.90;;;;;;5050003;28;20483;-60
2021/04/09 10:42:18;;;;;;;7.90;2.03;;;12.40;99.90;;;;;;5049065;28;20187;-59
2021/04/09 10:44:44;;;;;;;23.38;3.10;;;12.90;99.90;;;;;;5050248;28;20041;-59
2021/04/09 10:47:11;;;;;;;11.73;2.10;;;13.30;99.90;;;;;;5049527;28;20525;-60
2021/04/09 10:49:42;;;;;;;9.50;2.53;;;13.40;99.90;;;;;;5049906;28;20025;-60
2021/04/09 10:52:17;;;;;;;13.02;2.25;;;13.30;99.90;;;;;;5047689;28;20474;-60
2021/04/09 10:54:44;;;;;;;9.50;2.20;;;13.00;99.90;;;;;;5052216;28;20470;-59
2021/04/09 10:57:15;;;;;;;9.57;1.70;;;13.00;99.90;;;;;;5054094;28;20033;-58
2021/04/09 10:59:43;;;;;;;8.10;2.60;;;13.00;99.90;;;;;;5053752;28;20013;-59
2021/04/09 11:02:16;;;;;;;6.32;2.15;;;12.80;99.90;;;;;;5053306;28;20024;-59
2021/04/09 11:04:50;;;;;;;15.63;2.55;;;12.80;99.90;;;;;;5053177;28;20509;-60
2021/04/09 11:07:16;;;;;;;9.20;1.95;;;12.90;99.90;;;;;;5053433;28;20510;-60
2021/04/09 11:09:49;;;;;;;8.82;1.83;;;12.90;99.90;;;;;;5053640;28;20033;-59
2021/04/09 11:12:23;;;;;;;13.45;1.90;;;12.90;99.90;;;;;;5051776;28;20032;-59
2021/04/09 11:15:04;;;;;;;10.95;2.30;;;13.10;99.90;;;;;;5053356;28;20025;-59
2021/04/09 11:17:30;;;;;;;8.35;2.15;;;13.40;99.90;;;;;;5052966;28;20029;-59
2021/04/09 11:20:01;;;;;;;13.65;2.63;;;13.60;99.90;;;;;;5048544;28;20112;-58
2021/04/09 11:22:29;;;;;;;8.52;1.67;;;13.80;99.90;;;;;;5043833;28;20037;-59
2021/04/09 11:25:07;;;;;;;12.13;1.80;;;13.80;99.90;;;;;;5051143;28;20045;-58
2021/04/09 11:27:34;;;;;;;4.50;1.75;;;13.90;99.90;;;;;;5052843;28;20079;-60
2021/04/09 11:30:22;;;;;;;8.73;1.98;;;14.00;99.90;;;;;;5053646;28;20029;-58
2021/04/09 11:32:52;;;;;;;5.68;1.83;;;14.00;99.90;;;;;;5053347;28;20021;-59
2021/04/09 11:35:20;;;;;;;8.88;1.70;;;13.90;99.90;;;;;;5052350;28;20031;-60
2021/04/09 11:37:52;;;;;;;8.77;2.08;;;14.10;99.90;;;;;;5042209;28;20037;-60
2021/04/09 11:40:40;;;;;;;9.48;2.28;;;14.30;99.90;;;;;;5054080;28;20522;-60
2021/04/09 11:43:07;;;;;;;5.15;1.70;;;14.70;99.90;;;;;;5052880;28;20037;-60
2021/04/09 11:45:44;;;;;;;4.93;2.13;;;14.60;99.90;;;;;;5052920;28;20455;-60
2021/04/09 11:48:26;;;;;;;5.20;2.10;;;14.60;99.90;;;;;;5052704;28;20044;-60
2021/04/09 11:50:52;;;;;;;6.15;1.58;;;14.40;99.90;;;;;;5052954;28;20017;-59
2021/04/09 11:53:18;;;;;;;15.10;3.08;;;14.20;99.90;;;;;;5052976;28;20044;-60
2021/04/09 11:55:47;;;;;;;7.82;2.15;;;13.70;99.90;;;;;;5047124;28;20030;-59
2021/04/09 11:58:26;;;;;;;21.40;3.40;;;13.30;99.90;;;;;;5048438;28;20025;-60
2021/04/09 12:01:00;;;;;;;11.05;3.00;;;12.90;99.90;;;;;;5051951;28;20048;-60
2021/04/09 12:03:45;;;;;;;8.05;2.47;;;12.70;99.90;;;;;;5050133;28;20055;-59
2021/04/09 12:06:11;;;;;;;20.33;3.63;;;12.60;99.90;;;;;;5052002;28;20028;-59
2021/04/09 12:08:37;;;;;;;5.18;2.17;;;12.50;99.90;;;;;;5052315;28;20391;-60
2021/04/09 12:11:03;;;;;;;7.22;2.58;;;12.50;99.90;;;;;;5051374;28;20037;-60
2021/04/09 12:13:29;;;;;;;13.02;2.50;;;12.40;99.90;;;;;;5051800;28;20112;-59
2021/04/09 12:15:55;;;;;;;15.60;3.08;;;12.40;99.90;;;;;;5053139;28;20037;-58
2021/04/09 12:18:21;;;;;;;16.00;3.40;;;12.30;99.90;;;;;;5051946;28;20037;-59
2021/04/09 12:20:47;;;;;;;16.20;3.42;;;12.20;99.90;;;;;;5053017;28;20175;-61
2021/04/09 12:23:12;;;;;;;14.05;3.50;;;12.20;99.90;;;;;;5045596;28;20024;-59
2021/04/09 12:25:38;;;;;;;22.95;3.80;;;12.20;99.90;;;;;;5049187;28;20048;-58
2021/04/09 12:28:07;;;;;;;16.42;3.47;;;12.20;99.90;;;;;;5051797;28;20033;-59
2021/04/09 12:30:33;;;;;;;15.77;4.28;;;12.30;99.90;;;;;;5051854;28;20067;-59
2021/04/09 12:32:58;;;;;;;20.42;3.95;;;12.40;99.90;;;;;;5048568;28;20045;-59
2021/04/09 12:35:25;;;;;;;18.42;3.80;;;12.70;99.90;;;;;;5049913;28;20364;-60
2021/04/09 12:37:51;;;;;;;20.50;3.95;;;12.90;99.90;;;;;;5049052;28;20025;-59
2021/04/09 12:40:17;;;;;;;19.02;3.55;;;13.00;99.90;;;;;;5048420;28;20036;-58
2021/04/09 12:42:42;;;;;;;17.42;3.55;;;13.10;99.90;;;;;;5049652;28;20025;-61
2021/04/09 12:45:09;;;;;;;12.10;3.63;;;13.10;99.90;;;;;;5051778;28;20032;-59
2021/04/09 12:47:35;;;;;;;15.57;3.30;;;13.20;99.90;;;;;;5050903;28;20037;-58
2021/04/09 12:50:00;;;;;;;14.02;3.65;;;13.00;99.90;;;;;;5050229;28;20060;-59
2021/04/09 12:52:26;;;;;;;19.55;4.07;;;12.50;99.90;;;;;;5049236;28;20108;-59
2021/04/09 12:54:52;;;;;;;17.40;3.50;;;12.20;99.90;;;;;;5047943;28;20044;-58
2021/04/09 12:57:17;;;;;;;22.15;4.22;;;12.10;99.90;;;;;;5051032;28;20064;-60
2021/04/09 12:59:43;;;;;;;27.90;4.50;;;11.90;99.90;;;;;;5050717;28;20053;-59